createdAt,value
2024-04-30T00:02:02.653Z,16.19
2024-04-30T00:06:55.757Z,16.17
2024-04-30T00:11:48.481Z,16.21
2024-04-30T00:16:42.603Z,16.25
2024-04-30T00:21:43.008Z,16.25
2024-04-30T00:26:36.576Z,16.16
2024-04-30T00:31:29.246Z,16.12
2024-04-30T00:36:22.852Z,16.03
2024-04-30T00:41:15.845Z,16.00
2024-04-30T00:46:09.380Z,15.94
2024-04-30T00:51:05.027Z,15.85
2024-04-30T00:55:57.757Z,15.80
2024-04-30T01:00:50.400Z,15.76
2024-04-30T01:05:43.631Z,15.69
2024-04-30T01:10:36.441Z,15.60
2024-04-30T01:15:29.333Z,15.56
2024-04-30T01:20:21.904Z,15.42
2024-04-30T01:25:14.559Z,15.29
2024-04-30T01:30:08.501Z,15.15
2024-04-30T01:35:01.122Z,15.05
2024-04-30T01:39:54.011Z,14.95
2024-04-30T01:44:46.591Z,14.90
2024-04-30T01:49:39.259Z,14.81
2024-04-30T01:54:31.828Z,14.73
2024-04-30T01:59:24.451Z,14.68
2024-04-30T02:04:17.069Z,14.66
2024-04-30T02:09:10.499Z,14.58
2024-04-30T02:14:03.092Z,14.50
2024-04-30T02:18:55.639Z,14.44
2024-04-30T02:23:48.666Z,14.37
2024-04-30T02:28:41.307Z,14.30
2024-04-30T02:33:51.586Z,14.23
2024-04-30T02:38:44.167Z,14.14
2024-04-30T02:43:37.252Z,14.04
2024-04-30T02:48:29.883Z,13.96
2024-04-30T02:53:22.511Z,13.86
2024-04-30T02:58:15.095Z,13.77
2024-04-30T03:03:07.728Z,13.70
2024-04-30T03:08:00.338Z,13.66
2024-04-30T03:12:53.021Z,13.62
2024-04-30T03:17:47.903Z,13.55
2024-04-30T03:22:41.972Z,13.45
2024-04-30T03:27:35.235Z,13.40
2024-04-30T03:32:27.868Z,13.36
2024-04-30T03:37:20.684Z,13.32
2024-04-30T03:42:13.456Z,13.31
2024-04-30T03:47:06.200Z,13.30
2024-04-30T03:51:58.788Z,13.30
2024-04-30T03:56:51.357Z,13.28
2024-04-30T04:01:43.972Z,13.29
2024-04-30T04:06:36.636Z,13.32
2024-04-30T04:11:46.629Z,13.32
2024-04-30T04:16:39.315Z,13.31
2024-04-30T04:21:32.938Z,13.39
2024-04-30T04:26:25.531Z,13.42
2024-04-30T04:31:18.272Z,13.45
2024-04-30T04:36:15.620Z,13.47
2024-04-30T04:41:08.170Z,13.51
2024-04-30T04:46:01.449Z,13.55
2024-04-30T04:50:54.243Z,13.63
2024-04-30T04:55:46.948Z,13.73
2024-04-30T05:00:39.543Z,13.86
2024-04-30T05:05:32.153Z,13.98
2024-04-30T05:10:24.791Z,14.07
2024-04-30T05:15:17.490Z,14.19
2024-04-30T05:20:10.499Z,14.29
2024-04-30T05:25:03.111Z,14.43
2024-04-30T05:29:57.816Z,14.61
2024-04-30T05:34:50.870Z,14.79
2024-04-30T05:39:43.442Z,14.99
2024-04-30T05:44:36.024Z,15.22
2024-04-30T05:49:28.735Z,15.48
2024-04-30T05:54:21.640Z,15.76
2024-04-30T05:59:14.898Z,16.01
2024-04-30T06:04:07.633Z,16.25
2024-04-30T06:09:01.156Z,16.43
2024-04-30T06:13:53.857Z,16.65
2024-04-30T06:18:46.490Z,17.11
2024-04-30T06:23:39.139Z,17.72
2024-04-30T06:28:34.181Z,18.36
2024-04-30T06:33:27.534Z,19.40
2024-04-30T06:38:20.164Z,19.62
2024-04-30T06:43:12.814Z,19.40
2024-04-30T06:48:06.582Z,19.83
2024-04-30T06:52:59.366Z,20.74
2024-04-30T06:57:51.934Z,22.01
2024-04-30T07:02:44.652Z,22.69
2024-04-30T07:07:37.386Z,23.58
2024-04-30T07:12:30.016Z,23.22
2024-04-30T07:17:22.949Z,22.85
2024-04-30T07:22:17.249Z,22.34
2024-04-30T07:27:09.918Z,22.30
2024-04-30T07:32:02.565Z,23.31
2024-04-30T07:36:55.207Z,25.80
2024-04-30T07:41:47.768Z,27.78
2024-04-30T07:46:40.360Z,26.68
2024-04-30T07:51:32.981Z,27.39
2024-04-30T07:56:25.559Z,27.46
2024-04-30T08:01:18.423Z,27.93
2024-04-30T08:06:18.550Z,27.73
2024-04-30T08:11:13.483Z,27.00
2024-04-30T08:16:06.633Z,26.96
2024-04-30T08:20:59.335Z,26.91
2024-04-30T08:25:51.897Z,27.32
2024-04-30T08:30:44.646Z,26.45
2024-04-30T08:35:37.554Z,25.59
2024-04-30T08:40:33.400Z,24.93
2024-04-30T08:45:28.329Z,24.58
2024-04-30T08:50:26.442Z,24.42
2024-04-30T08:55:20.673Z,24.62
2024-04-30T09:06:07.439Z,24.94
2024-04-30T09:11:00.119Z,24.69
2024-04-30T09:16:02.279Z,24.56
2024-04-30T09:20:57.151Z,24.63
2024-04-30T09:25:50.209Z,25.24
2024-04-30T09:30:43.964Z,25.91
2024-04-30T09:35:37.092Z,25.68
2024-04-30T09:40:31.209Z,25.55
2024-04-30T09:45:24.860Z,25.65
2024-04-30T09:50:18.470Z,25.84
2024-04-30T09:55:12.156Z,26.18
2024-04-30T10:00:05.030Z,28.27
2024-04-30T10:05:05.950Z,31.38
2024-04-30T10:09:58.618Z,33.54
2024-04-30T10:14:51.402Z,34.93
2024-04-30T10:19:46.684Z,35.87
2024-04-30T10:24:42.128Z,36.64
2024-04-30T10:29:34.844Z,36.97
2024-04-30T10:34:27.430Z,37.45
2024-04-30T10:39:27.486Z,37.63
2024-04-30T10:44:20.128Z,37.50
2024-04-30T10:49:13.389Z,37.27
2024-04-30T10:54:06.417Z,37.24
2024-04-30T10:59:00.250Z,37.39
2024-04-30T11:03:53.998Z,37.40
2024-04-30T11:08:47.561Z,37.20
2024-04-30T11:13:40.267Z,36.85
2024-04-30T11:18:34.584Z,36.59
2024-04-30T11:23:27.872Z,36.11
2024-04-30T11:28:20.510Z,35.82
2024-04-30T11:33:13.185Z,35.05
2024-04-30T11:38:06.463Z,34.16
2024-04-30T11:42:59.126Z,33.18
2024-04-30T11:47:52.481Z,32.50
2024-04-30T11:52:45.352Z,31.80
2024-04-30T11:57:38.111Z,31.36
2024-04-30T12:02:30.818Z,30.88
2024-04-30T12:07:23.632Z,30.72
2024-04-30T12:12:17.095Z,30.51
2024-04-30T12:17:09.740Z,30.45
2024-04-30T12:22:02.346Z,30.49
2024-04-30T12:26:55.824Z,30.38
2024-04-30T12:31:48.417Z,30.20
2024-04-30T12:36:43.316Z,29.93
2024-04-30T12:41:42.156Z,29.85
2024-04-30T12:46:34.842Z,29.87
2024-04-30T12:51:27.574Z,29.88
2024-04-30T12:56:20.787Z,30.00
2024-04-30T13:01:17.962Z,30.12
2024-04-30T13:06:12.919Z,30.25
2024-04-30T13:11:06.085Z,30.19
2024-04-30T13:15:58.792Z,30.30
2024-04-30T13:20:51.446Z,30.35
2024-04-30T13:25:44.168Z,30.26
2024-04-30T13:30:38.912Z,30.08
2024-04-30T13:35:31.641Z,30.12
2024-04-30T13:40:24.400Z,30.20
2024-04-30T13:45:17.261Z,30.28
2024-04-30T13:50:11.654Z,30.38
2024-04-30T13:55:04.946Z,30.38
2024-04-30T13:59:57.571Z,30.25
2024-04-30T14:04:50.793Z,30.31
2024-04-30T14:09:43.495Z,30.36
2024-04-30T14:14:37.660Z,30.24
2024-04-30T14:19:33.005Z,30.09
2024-04-30T14:24:27.245Z,29.95
2024-04-30T14:29:21.282Z,29.82
2024-04-30T14:34:14.073Z,29.65
2024-04-30T14:39:10.303Z,29.65
2024-04-30T14:44:03.639Z,29.54
2024-04-30T14:48:56.595Z,29.40
2024-04-30T14:53:49.297Z,29.30
2024-04-30T14:58:42.516Z,29.07
2024-04-30T15:03:35.950Z,28.92
2024-04-30T15:08:28.618Z,28.69
2024-04-30T15:13:21.231Z,28.50
2024-04-30T15:18:15.091Z,28.43
2024-04-30T15:23:09.264Z,28.29
2024-04-30T15:28:02.122Z,28.27
2024-04-30T15:32:55.325Z,28.20
2024-04-30T15:37:48.031Z,28.05
2024-04-30T15:42:40.916Z,27.84
2024-04-30T15:47:33.562Z,27.67
2024-04-30T15:52:26.237Z,27.49
2024-04-30T15:57:18.864Z,27.36
2024-04-30T16:02:11.448Z,27.10
2024-04-30T16:07:04.134Z,26.82
2024-04-30T16:11:57.807Z,26.61
2024-04-30T16:16:50.780Z,26.45
2024-04-30T16:21:43.904Z,26.24
2024-04-30T16:26:36.485Z,26.10
2024-04-30T16:36:26.663Z,25.79
2024-04-30T16:41:19.477Z,25.61
2024-04-30T16:46:12.520Z,25.44
2024-04-30T16:51:13.556Z,25.22
2024-04-30T16:56:07.011Z,25.04
2024-04-30T17:00:59.810Z,24.82
2024-04-30T17:05:52.618Z,24.54
2024-04-30T17:10:45.383Z,24.26
2024-04-30T17:15:39.176Z,24.00
2024-04-30T17:20:31.828Z,23.68
2024-04-30T17:25:24.417Z,23.39
2024-04-30T17:30:17.104Z,23.11
2024-04-30T17:35:09.788Z,22.81
2024-04-30T17:40:02.958Z,22.50
2024-04-30T17:44:55.649Z,22.23
2024-04-30T17:49:48.329Z,22.02
2024-04-30T17:54:40.932Z,21.78
2024-04-30T17:59:33.590Z,21.51
2024-04-30T18:04:26.239Z,21.22
2024-04-30T18:09:18.962Z,21.00
2024-04-30T18:14:11.681Z,20.77
2024-04-30T18:19:04.273Z,20.52
2024-04-30T18:23:57.529Z,20.31
2024-04-30T18:28:55.783Z,20.10
2024-04-30T18:33:50.465Z,19.90
2024-04-30T18:38:44.550Z,19.71
2024-04-30T18:43:39.660Z,19.55
2024-04-30T18:48:32.368Z,19.37
2024-04-30T18:53:25.024Z,19.17
2024-04-30T18:58:17.627Z,18.96
2024-04-30T19:03:11.945Z,18.82
2024-04-30T19:08:04.698Z,18.68
2024-04-30T19:12:58.374Z,18.52
2024-04-30T19:17:51.331Z,18.39
2024-04-30T19:22:44.107Z,18.28
2024-04-30T19:27:37.082Z,18.15
2024-04-30T19:32:30.197Z,18.01
2024-04-30T19:37:22.768Z,17.87
2024-04-30T19:42:15.383Z,17.73
2024-04-30T19:47:08.647Z,17.59
2024-04-30T19:52:01.384Z,17.51
2024-04-30T19:56:54.010Z,17.43
2024-04-30T20:01:46.887Z,17.33
2024-04-30T20:06:43.813Z,17.27
2024-04-30T20:11:38.590Z,17.20
2024-04-30T20:16:31.929Z,17.11
2024-04-30T20:21:26.252Z,17.07
2024-04-30T20:26:18.963Z,17.02
2024-04-30T20:31:11.610Z,16.94
2024-04-30T20:36:04.364Z,16.88
2024-04-30T20:40:56.968Z,16.81
2024-04-30T20:45:49.681Z,16.72
2024-04-30T20:50:43.542Z,16.65
2024-04-30T20:55:36.199Z,16.52
2024-04-30T21:00:28.925Z,16.40
2024-04-30T21:05:21.755Z,16.31
2024-04-30T21:10:14.414Z,16.25
2024-04-30T21:15:07.706Z,16.14
2024-04-30T21:20:00.613Z,16.03
2024-04-30T21:24:53.219Z,15.91
2024-04-30T21:29:46.106Z,15.80
2024-04-30T21:34:38.945Z,15.67
2024-04-30T21:39:31.755Z,15.54
2024-04-30T21:44:24.351Z,15.45
2024-04-30T21:49:17.272Z,15.34
2024-04-30T21:54:10.796Z,15.19
2024-04-30T21:59:03.680Z,15.07
2024-04-30T22:03:56.338Z,14.98
2024-04-30T22:08:48.950Z,14.87
2024-04-30T22:13:41.632Z,14.72
2024-04-30T22:18:36.466Z,14.59
2024-04-30T22:23:33.710Z,14.47
2024-04-30T22:28:26.663Z,14.37
2024-04-30T22:33:20.089Z,14.26
2024-04-30T22:38:12.773Z,14.18
2024-04-30T22:43:05.610Z,14.11
2024-04-30T22:48:02.389Z,14.01
2024-04-30T22:52:55.750Z,13.91
2024-04-30T22:57:48.359Z,13.84
2024-04-30T23:02:41.007Z,13.79
2024-04-30T23:07:35.746Z,13.73
2024-04-30T23:12:29.102Z,13.60
2024-04-30T23:17:25.641Z,13.51
2024-04-30T23:22:18.731Z,13.43
2024-04-30T23:27:11.387Z,13.34
2024-04-30T23:32:04.248Z,13.27
2024-04-30T23:36:57.037Z,13.20
2024-04-30T23:41:50.046Z,13.10
2024-04-30T23:46:42.730Z,13.01
2024-04-30T23:51:35.284Z,12.92
2024-04-30T23:56:27.847Z,12.84
